BGSF

Kangerlussuaq Airport

Kangerlussuaq, Greenland
METAR BGSF 181950Z AUTO 06008KT 9000NDV BKN055/// M22/M24 Q0992
Observed Flight Rules
Jan-18 @ 19:50 UTC (55 minutes ago)
Wind Clouds
60° at 8 knots
  • Broken at 5,500' AGL
Temperatures Readings
Current -22°C / -8°F
Dewpoint -24°C / -11°F
Humidity 84%
Altimeter 29.29" Hg
Pressure 991.92 hPa
Elevation 53
METAR BGSF 181950Z AUTO 06008KT 9000NDV BKN055/// M22/M24 Q0992
Observed Flight Rules
Jan-18 @ 19:50 UTC
(55 minutes ago)
Wind
60° at 8 knots
Clouds
  • Broken at 5,500' AGL
Temperature Dewpoint
-22°C / -8°F -24°C / -11°F
Humidity Altimeter Pressure
84% 29.29" Hg 991.92 hPa